Time;durP1;ratioP1;P1;durP2;ratioP2;P2;SDS_P1;SDS_P2;PMS_P1;PMS_P2;Temp;Humidity;BMP_temperature;BMP_pressure;BME280_temperature;BME280_humidity;BME280_pressure;Samples;Min_cycle;Max_cycle;Signal;HPM_P1;HPM_P2
2023/07/14 00:01:43;;;;;;;2.00;1.02;;;17.80;99.90;;;;;;5143473;27;20039;-67
2023/07/14 00:04:11;;;;;;;0.00;0.00;;;17.80;99.90;;;;;;5146974;27;20026;-67
2023/07/14 00:06:38;;;;;;;0.10;0.10;;;17.80;99.90;;;;;;5126287;27;20478;-67
2023/07/14 00:09:21;;;;;;;0.38;0.20;;;17.90;99.90;;;;;;5132099;27;20095;-67
2023/07/14 00:11:47;;;;;;;;;;;17.90;99.90;;;;;;5146113;27;20051;-68
2023/07/14 00:14:13;;;;;;;0.95;0.75;;;17.80;99.90;;;;;;5147942;27;19923;-68
2023/07/14 00:16:38;;;;;;;0.10;0.10;;;17.80;99.90;;;;;;5146399;27;20049;-68
2023/07/14 00:19:16;;;;;;;0.20;0.20;;;17.80;99.90;;;;;;5149359;27;20038;-68
2023/07/14 00:21:43;;;;;;;0.25;0.25;;;17.70;99.90;;;;;;5146291;27;20035;-68
2023/07/14 00:24:15;;;;;;;0.20;0.20;;;17.70;99.90;;;;;;5147426;27;20030;-68
2023/07/14 00:26:42;;;;;;;0.25;0.25;;;17.80;99.90;;;;;;5149270;27;20039;-68
2023/07/14 00:29:35;;;;;;;0.50;0.50;;;17.80;99.90;;;;;;5151659;27;20030;-68
2023/07/14 00:32:02;;;;;;;0.00;0.00;;;17.80;99.90;;;;;;5142196;27;20157;-67
2023/07/14 00:34:29;;;;;;;0.40;0.40;;;17.70;99.90;;;;;;5153732;27;20086;-67
2023/07/14 00:36:55;;;;;;;0.65;0.65;;;17.70;99.90;;;;;;5150171;27;20379;-68
2023/07/14 00:39:20;;;;;;;0.00;0.00;;;17.60;99.90;;;;;;5145570;27;20042;-68
2023/07/14 00:41:46;;;;;;;0.25;0.25;;;17.70;99.90;;;;;;5142709;27;20037;-67
2023/07/14 00:44:16;;;;;;;0.50;0.43;;;17.70;99.90;;;;;;5152201;27;20042;-68
2023/07/14 00:46:42;;;;;;;0.25;0.22;;;17.70;99.90;;;;;;5148912;27;20079;-67
2023/07/14 00:49:19;;;;;;;0.15;0.15;;;17.70;99.90;;;;;;5136588;27;20066;-68
2023/07/14 00:51:45;;;;;;;0.00;0.00;;;17.60;99.90;;;;;;5150380;27;20478;-68
2023/07/14 00:54:28;;;;;;;0.00;0.00;;;17.60;99.90;;;;;;5127324;27;20042;-68
2023/07/14 00:56:55;;;;;;;3.45;1.42;;;17.60;99.90;;;;;;5144407;27;20035;-68
2023/07/14 00:59:34;;;;;;;0.57;0.45;;;17.60;99.90;;;;;;5148010;27;20035;-67
2023/07/14 01:02:11;;;;;;;0.00;0.00;;;17.60;99.90;;;;;;5149946;27;20042;-67
2023/07/14 01:04:47;;;;;;;0.13;0.13;;;17.60;99.90;;;;;;5122491;27;20063;-68
2023/07/14 01:07:15;;;;;;;0.43;0.43;;;17.60;99.90;;;;;;5150699;27;20150;-67
2023/07/14 01:09:42;;;;;;;0.00;0.00;;;17.50;99.90;;;;;;5145075;27;20058;-68
2023/07/14 01:12:12;;;;;;;0.40;0.40;;;17.50;99.90;;;;;;5146946;27;20519;-68
2023/07/14 01:14:42;;;;;;;0.65;0.57;;;17.50;99.90;;;;;;5132386;27;20070;-68
2023/07/14 01:17:09;;;;;;;2.10;1.45;;;17.50;99.90;;;;;;5143216;27;20121;-68
2023/07/14 01:19:47;;;;;;;0.15;0.15;;;17.50;99.90;;;;;;5148305;27;20035;-68
2023/07/14 01:22:16;;;;;;;0.00;0.00;;;17.50;99.90;;;;;;5145890;27;20383;-68
2023/07/14 01:24:52;;;;;;;0.20;0.20;;;17.50;99.90;;;;;;5142929;27;20374;-67
2023/07/14 01:27:17;;;;;;;0.05;0.05;;;17.50;99.90;;;;;;5150861;27;20655;-68
2023/07/14 01:29:43;;;;;;;3.20;0.77;;;17.50;99.90;;;;;;5145346;27;20038;-67
2023/07/14 01:32:18;;;;;;;0.30;0.30;;;17.50;99.90;;;;;;5037580;27;20917;-67
2023/07/14 01:34:45;;;;;;;0.10;0.10;;;17.40;99.90;;;;;;5063175;28;20087;-67
2023/07/14 01:37:16;;;;;;;0.22;0.20;;;17.50;99.90;;;;;;5057615;28;20308;-67
2023/07/14 01:39:43;;;;;;;0.00;0.00;;;17.40;99.90;;;;;;5051712;28;20045;-67
2023/07/14 01:42:09;;;;;;;0.20;0.20;;;17.40;99.90;;;;;;5059167;28;20132;-67
2023/07/14 01:44:35;;;;;;;0.77;0.60;;;17.40;99.90;;;;;;5063758;28;20063;-67
2023/07/14 01:47:02;;;;;;;0.00;0.00;;;17.40;99.90;;;;;;5048063;28;20038;-67
2023/07/14 01:49:28;;;;;;;0.90;0.45;;;17.50;99.90;;;;;;5056510;28;20076;-67
2023/07/14 01:51:58;;;;;;;0.22;0.20;;;17.50;99.90;;;;;;5061410;28;20457;-67
2023/07/14 01:54:29;;;;;;;0.00;0.00;;;17.40;99.90;;;;;;5060566;28;20111;-67
2023/07/14 01:56:59;;;;;;;0.00;0.00;;;17.40;99.90;;;;;;5051749;28;20048;-67
2023/07/14 01:59:29;;;;;;;0.00;0.00;;;17.40;99.90;;;;;;5063379;28;20067;-67
2023/07/14 02:01:59;;;;;;;0.17;0.17;;;17.40;99.90;;;;;;5038064;28;20069;-67
2023/07/14 02:04:28;;;;;;;0.00;0.00;;;17.40;99.90;;;;;;5042904;28;20155;-67
2023/07/14 02:06:57;;;;;;;0.30;0.30;;;17.40;99.90;;;;;;5061629;28;20068;-67
2023/07/14 02:09:24;;;;;;;0.17;0.17;;;17.40;99.90;;;;;;5054101;28;20037;-67
2023/07/14 02:12:04;;;;;;;0.20;0.20;;;17.50;99.90;;;;;;5045296;28;20171;-67
2023/07/14 02:14:41;;;;;;;0.35;0.05;;;17.50;99.90;;;;;;5057649;28;20028;-67
2023/07/14 02:17:17;;;;;;;10.20;1.65;;;17.50;99.90;;;;;;5057136;28;20040;-67
2023/07/14 02:19:42;;;;;;;0.13;0.10;;;17.50;99.90;;;;;;5037702;28;20504;-67
2023/07/14 02:22:08;;;;;;;2.80;0.93;;;17.50;99.90;;;;;;5055269;28;20123;-67
2023/07/14 02:24:34;;;;;;;0.00;0.00;;;17.50;99.90;;;;;;5059339;28;20499;-67
2023/07/14 02:27:02;;;;;;;0.00;0.00;;;17.40;99.90;;;;;;5026319;28;20048;-67
2023/07/14 02:29:29;;;;;;;0.00;0.00;;;17.40;99.90;;;;;;5054141;28;20041;-67
2023/07/14 02:32:02;;;;;;;0.00;0.00;;;17.30;99.90;;;;;;5048569;28;20052;-67
2023/07/14 02:34:33;;;;;;;0.10;0.10;;;17.40;99.90;;;;;;5036402;28;20392;-67
2023/07/14 02:37:39;;;;;;;0.20;0.20;;;17.30;99.90;;;;;;5053954;28;20045;-67
2023/07/14 02:40:06;;;;;;;0.10;0.10;;;17.20;99.90;;;;;;5043415;28;20430;-67
2023/07/14 02:42:37;;;;;;;0.00;0.00;;;17.30;99.90;;;;;;5037938;28;20053;-67
2023/07/14 02:45:04;;;;;;;1.75;0.30;;;17.30;99.90;;;;;;5034668;28;20078;-67
2023/07/14 02:47:34;;;;;;;0.08;0.08;;;17.30;99.90;;;;;;5026755;28;20060;-67
2023/07/14 02:49:59;;;;;;;2.65;0.65;;;17.30;99.90;;;;;;5035393;28;20077;-66
2023/07/14 02:52:25;;;;;;;0.00;0.00;;;17.30;99.90;;;;;;5023636;28;20100;-67
2023/07/14 02:54:51;;;;;;;0.00;0.00;;;17.30;99.90;;;;;;5037742;28;20534;-66
2023/07/14 02:57:16;;;;;;;0.20;0.20;;;17.30;99.90;;;;;;5044878;28;20099;-66
2023/07/14 02:59:42;;;;;;;0.10;0.10;;;17.30;99.90;;;;;;5038169;28;20037;-67
2023/07/14 03:02:08;;;;;;;0.90;0.40;;;17.30;99.90;;;;;;5039505;28;20083;-67
2023/07/14 03:04:34;;;;;;;0.55;0.10;;;17.30;99.90;;;;;;5047840;28;20041;-67
2023/07/14 03:07:01;;;;;;;0.25;0.25;;;17.30;99.90;;;;;;5048202;28;20041;-67
2023/07/14 03:09:26;;;;;;;0.90;0.52;;;17.30;99.90;;;;;;5026075;28;20045;-67
2023/07/14 03:11:52;;;;;;;0.65;0.65;;;17.20;99.90;;;;;;5040184;28;20515;-67
2023/07/14 03:14:18;;;;;;;0.95;0.75;;;17.20;99.90;;;;;;5043417;28;20424;-67
2023/07/14 03:16:44;;;;;;;0.00;0.00;;;17.20;99.90;;;;;;5030351;28;20036;-66
2023/07/14 03:19:09;;;;;;;0.00;0.00;;;17.20;99.90;;;;;;5032468;28;20069;-67
2023/07/14 03:21:35;;;;;;;0.00;0.00;;;17.10;99.90;;;;;;5018730;28;20147;-66
2023/07/14 03:24:01;;;;;;;1.20;0.65;;;17.10;99.90;;;;;;5041158;28;20061;-67
2023/07/14 03:26:27;;;;;;;0.00;0.00;;;17.10;99.90;;;;;;5030862;28;20404;-67
2023/07/14 03:28:52;;;;;;;0.00;0.00;;;17.00;99.90;;;;;;5026592;28;20033;-67
2023/07/14 03:31:18;;;;;;;1.23;0.35;;;17.00;99.90;;;;;;5044765;28;20565;-67
2023/07/14 03:33:44;;;;;;;0.10;0.10;;;17.10;99.90;;;;;;5033935;28;20492;-67
2023/07/14 03:36:13;;;;;;;0.52;0.20;;;17.10;99.90;;;;;;5038292;28;20041;-67
2023/07/14 03:38:43;;;;;;;0.52;0.45;;;17.00;99.90;;;;;;5037486;28;20390;-67
2023/07/14 03:41:13;;;;;;;0.08;0.08;;;17.00;99.90;;;;;;5026706;28;20519;-67
2023/07/14 03:43:39;;;;;;;0.00;0.00;;;17.00;99.90;;;;;;5036480;28;20029;-67
2023/07/14 03:46:05;;;;;;;0.22;0.22;;;17.00;99.90;;;;;;5018370;28;20496;-67
2023/07/14 03:48:31;;;;;;;0.00;0.00;;;16.90;99.90;;;;;;5041106;28;20041;-67
2023/07/14 03:51:04;;;;;;;0.00;0.00;;;16.90;99.90;;;;;;5029475;28;20044;-67
2023/07/14 03:53:30;;;;;;;1.27;0.25;;;16.90;99.90;;;;;;5028768;28;20049;-67
2023/07/14 03:55:57;;;;;;;11.18;3.33;;;16.80;99.90;;;;;;5026318;28;20033;-67
2023/07/14 03:58:23;;;;;;;1.75;0.65;;;16.80;99.90;;;;;;5039116;28;20055;-67
2023/07/14 04:00:49;;;;;;;1.00;0.38;;;16.90;99.90;;;;;;5037176;28;20041;-67
2023/07/14 04:03:15;;;;;;;0.10;0.10;;;16.80;99.90;;;;;;5037605;28;20503;-67
2023/07/14 04:05:48;;;;;;;0.00;0.00;;;16.80;99.90;;;;;;5033352;28;20045;-67
2023/07/14 04:08:14;;;;;;;0.00;0.00;;;16.80;99.90;;;;;;5027709;28;20090;-67
2023/07/14 04:10:39;;;;;;;0.00;0.00;;;16.80;99.90;;;;;;5043427;28;20508;-67
2023/07/14 04:13:05;;;;;;;0.10;0.10;;;16.80;99.90;;;;;;5026608;28;20061;-67
2023/07/14 04:15:31;;;;;;;0.10;0.10;;;16.80;99.90;;;;;;5036997;28;20393;-67
2023/07/14 04:17:56;;;;;;;0.55;0.47;;;16.90;99.90;;;;;;5030528;28;20042;-67
2023/07/14 04:20:22;;;;;;;0.00;0.00;;;16.90;99.90;;;;;;5032902;28;20095;-67
2023/07/14 04:22:48;;;;;;;0.10;0.10;;;16.90;99.90;;;;;;5033811;28;20053;-67
2023/07/14 04:25:13;;;;;;;0.10;0.10;;;16.90;99.90;;;;;;5027558;28;20070;-67
2023/07/14 04:27:39;;;;;;;0.10;0.10;;;17.00;99.90;;;;;;5044779;28;20041;-67
2023/07/14 04:30:08;;;;;;;0.93;0.88;;;16.90;99.90;;;;;;5026759;28;20033;-67
2023/07/14 04:32:34;;;;;;;0.00;0.00;;;17.00;99.90;;;;;;5027920;28;20068;-67
2023/07/14 04:34:59;;;;;;;1.27;0.28;;;17.00;99.90;;;;;;5028939;28;20481;-67
2023/07/14 04:37:25;;;;;;;0.00;0.00;;;17.00;99.90;;;;;;5039112;28;20591;-67
2023/07/14 04:39:51;;;;;;;0.10;0.10;;;17.00;99.90;;;;;;5038962;28;20044;-66
2023/07/14 04:42:16;;;;;;;0.00;0.00;;;17.00;99.90;;;;;;5044202;28;20037;-67
2023/07/14 04:44:42;;;;;;;0.35;0.35;;;17.00;99.90;;;;;;5022997;28;20111;-67
2023/07/14 04:47:08;;;;;;;0.00;0.00;;;17.00;99.90;;;;;;5015608;28;20428;-67
2023/07/14 04:49:34;;;;;;;0.00;0.00;;;17.00;99.90;;;;;;5038177;28;20428;-67
2023/07/14 04:52:00;;;;;;;0.30;0.30;;;17.00;99.90;;;;;;5013741;28;20049;-67
2023/07/14 04:54:26;;;;;;;0.10;0.10;;;16.90;99.90;;;;;;5026173;28;20046;-67
2023/07/14 04:56:52;;;;;;;0.28;0.25;;;16.90;99.90;;;;;;5026319;28;20090;-67
2023/07/14 04:59:18;;;;;;;0.00;0.00;;;17.00;99.90;;;;;;5028717;28;20095;-67
2023/07/14 05:01:43;;;;;;;0.00;0.00;;;17.00;99.90;;;;;;5020371;28;20042;-67
2023/07/14 05:04:09;;;;;;;0.10;0.10;;;17.00;99.90;;;;;;5033927;28;20045;-67
2023/07/14 05:06:35;;;;;;;0.00;0.00;;;17.00;99.90;;;;;;5033864;28;20045;-67
2023/07/14 05:09:00;;;;;;;0.47;0.47;;;17.00;99.90;;;;;;5025408;28;20045;-67
2023/07/14 05:11:27;;;;;;;8.57;1.15;;;17.00;99.90;;;;;;5045922;28;20037;-67
2023/07/14 05:13:53;;;;;;;0.00;0.00;;;17.00;99.90;;;;;;5046667;28;20178;-67
2023/07/14 05:16:20;;;;;;;0.10;0.10;;;17.00;99.90;;;;;;5037479;28;20568;-67
2023/07/14 05:18:46;;;;;;;0.03;0.03;;;17.10;99.90;;;;;;5043750;28;20044;-67
2023/07/14 05:21:12;;;;;;;0.00;0.00;;;17.10;99.90;;;;;;5041960;28;20107;-67
2023/07/14 05:23:38;;;;;;;0.00;0.00;;;17.10;99.90;;;;;;5009928;28;20047;-67
2023/07/14 05:26:03;;;;;;;0.00;0.00;;;17.10;99.90;;;;;;5035536;28;20037;-67
2023/07/14 05:28:29;;;;;;;0.03;0.03;;;17.10;99.90;;;;;;5038068;28;20072;-67
2023/07/14 05:30:55;;;;;;;0.73;0.73;;;17.10;99.90;;;;;;5023445;28;20056;-67
2023/07/14 05:33:21;;;;;;;1.17;0.68;;;17.20;99.90;;;;;;5023836;28;20485;-67
2023/07/14 05:35:48;;;;;;;0.60;0.55;;;17.20;99.90;;;;;;5031054;28;20034;-67
2023/07/14 05:38:15;;;;;;;2.20;0.38;;;17.20;99.90;;;;;;5026862;28;20128;-67
2023/07/14 05:40:40;;;;;;;0.75;0.75;;;17.20;99.90;;;;;;5029530;28;20087;-67
2023/07/14 05:43:06;;;;;;;0.10;0.10;;;17.30;99.90;;;;;;5042727;28;20126;-67
2023/07/14 05:45:32;;;;;;;0.17;0.13;;;17.30;99.90;;;;;;5029540;28;20053;-67
2023/07/14 05:47:58;;;;;;;0.63;0.45;;;17.40;99.90;;;;;;5035390;28;20456;-67
2023/07/14 05:50:24;;;;;;;0.20;0.20;;;17.40;99.90;;;;;;5048453;28;20041;-67
2023/07/14 05:52:50;;;;;;;0.15;0.15;;;17.50;99.90;;;;;;5027815;28;20537;-67
2023/07/14 05:55:16;;;;;;;0.20;0.20;;;17.50;99.90;;;;;;5041324;28;20033;-67
2023/07/14 05:57:43;;;;;;;0.05;0.05;;;17.50;99.90;;;;;;5036013;28;20075;-67
2023/07/14 06:00:16;;;;;;;3.20;1.33;;;17.60;99.90;;;;;;5040656;28;20045;-67
2023/07/14 06:02:44;;;;;;;2.58;0.35;;;17.60;99.90;;;;;;5022256;28;20400;-67
2023/07/14 06:05:12;;;;;;;0.90;0.43;;;17.70;99.90;;;;;;5028361;28;20045;-67
2023/07/14 06:07:38;;;;;;;0.85;0.30;;;17.60;99.90;;;;;;5043069;28;20512;-67
2023/07/14 06:10:05;;;;;;;0.10;0.10;;;17.70;99.90;;;;;;5028627;28;20485;-67
2023/07/14 06:12:32;;;;;;;0.08;0.08;;;17.80;99.90;;;;;;5022501;28;20404;-67
2023/07/14 06:14:58;;;;;;;0.00;0.00;;;17.80;99.90;;;;;;5035669;28;20037;-67
2023/07/14 06:17:23;;;;;;;1.27;0.75;;;17.80;99.90;;;;;;5042197;28;20049;-67
2023/07/14 06:19:49;;;;;;;0.00;0.00;;;17.90;99.90;;;;;;5028872;28;20048;-67
2023/07/14 06:22:15;;;;;;;0.90;0.90;;;17.90;99.90;;;;;;5039966;28;20041;-67
2023/07/14 06:24:41;;;;;;;0.00;0.00;;;18.00;99.90;;;;;;5031568;28;20500;-67
2023/07/14 06:27:07;;;;;;;0.20;0.20;;;18.00;99.90;;;;;;5037268;28;20041;-67
2023/07/14 06:29:33;;;;;;;0.05;0.05;;;18.10;99.90;;;;;;5029640;28;20119;-68
2023/07/14 06:31:59;;;;;;;0.32;0.32;;;18.10;99.90;;;;;;5028532;28;20159;-68
2023/07/14 06:34:25;;;;;;;0.00;0.00;;;18.20;99.90;;;;;;5026843;28;20083;-68
2023/07/14 06:36:51;;;;;;;0.00;0.00;;;18.30;99.90;;;;;;5042187;28;20808;-67
2023/07/14 06:39:17;;;;;;;0.00;0.00;;;18.30;99.90;;;;;;5035736;28;20033;-67
2023/07/14 06:41:44;;;;;;;0.28;0.28;;;18.30;99.90;;;;;;5040956;28;20044;-67
2023/07/14 06:44:10;;;;;;;0.52;0.52;;;18.40;99.90;;;;;;5039483;28;20045;-67
2023/07/14 06:46:35;;;;;;;0.00;0.00;;;18.40;99.90;;;;;;5027582;28;20099;-67
2023/07/14 06:49:03;;;;;;;0.15;0.15;;;18.40;99.90;;;;;;5041271;28;20041;-67
2023/07/14 06:51:29;;;;;;;0.00;0.00;;;18.40;99.90;;;;;;5044081;28;20063;-67
2023/07/14 06:53:55;;;;;;;0.00;0.00;;;18.40;99.90;;;;;;5030733;28;20512;-67
2023/07/14 06:56:21;;;;;;;0.00;0.00;;;18.50;99.90;;;;;;5041706;28;20045;-67
2023/07/14 06:58:46;;;;;;;0.20;0.20;;;18.50;99.90;;;;;;5038374;28;20034;-67
2023/07/14 07:01:13;;;;;;;0.10;0.10;;;18.50;99.90;;;;;;5040519;28;20044;-67
2023/07/14 07:03:39;;;;;;;0.10;0.10;;;18.60;99.90;;;;;;5038004;28;20037;-67
2023/07/14 07:06:04;;;;;;;0.00;0.00;;;18.60;99.90;;;;;;5045025;28;20378;-67
2023/07/14 07:08:30;;;;;;;0.08;0.08;;;18.60;99.90;;;;;;5029854;28;20412;-66
2023/07/14 07:10:56;;;;;;;0.38;0.38;;;18.70;99.90;;;;;;5036044;28;20038;-67
2023/07/14 07:13:21;;;;;;;0.08;0.08;;;18.70;99.90;;;;;;5037143;28;20400;-67
2023/07/14 07:15:47;;;;;;;0.28;0.28;;;18.80;99.90;;;;;;5044575;28;20040;-67
2023/07/14 07:18:13;;;;;;;0.17;0.17;;;18.80;99.90;;;;;;5035865;28;20052;-67
2023/07/14 07:20:43;;;;;;;0.00;0.00;;;18.80;99.90;;;;;;5035261;28;20045;-67
2023/07/14 07:23:09;;;;;;;0.25;0.20;;;18.90;99.90;;;;;;5027278;28;20060;-67
2023/07/14 07:25:35;;;;;;;0.20;0.20;;;18.80;99.90;;;;;;5028896;28;20042;-68
2023/07/14 07:28:01;;;;;;;0.10;0.10;;;18.90;99.90;;;;;;5023263;28;20091;-67
2023/07/14 07:30:27;;;;;;;0.00;0.00;;;18.90;99.90;;;;;;5028230;28;20509;-67
2023/07/14 07:32:52;;;;;;;0.15;0.15;;;19.00;99.90;;;;;;5025359;28;20276;-67
2023/07/14 07:35:18;;;;;;;0.63;0.63;;;19.00;99.90;;;;;;5027231;28;20056;-67
2023/07/14 07:37:44;;;;;;;3.30;1.75;;;19.00;99.90;;;;;;5026132;28;20481;-67
2023/07/14 07:40:11;;;;;;;0.10;0.10;;;19.00;99.90;;;;;;5028026;28;20117;-67
2023/07/14 07:42:38;;;;;;;0.40;0.25;;;19.00;99.90;;;;;;5013067;28;20062;-66
2023/07/14 07:45:04;;;;;;;0.10;0.10;;;19.00;99.90;;;;;;5025073;28;20128;-66
2023/07/14 07:47:29;;;;;;;0.03;0.03;;;19.20;99.90;;;;;;5031963;28;20041;-66
2023/07/14 07:49:55;;;;;;;0.20;0.20;;;19.10;99.90;;;;;;5024608;28;20513;-67
2023/07/14 07:52:21;;;;;;;1.50;1.00;;;19.30;99.90;;;;;;5033968;28;20463;-67
2023/07/14 07:54:46;;;;;;;1.45;0.98;;;19.30;99.90;;;;;;5017558;28;20107;-66
2023/07/14 07:57:12;;;;;;;0.00;0.00;;;19.40;99.90;;;;;;5028734;28;20048;-66
2023/07/14 07:59:38;;;;;;;0.63;0.20;;;19.30;99.90;;;;;;5040107;28;20039;-66
2023/07/14 08:02:06;;;;;;;0.10;0.10;;;19.20;99.90;;;;;;5037349;28;20100;-66
2023/07/14 08:04:33;;;;;;;0.20;0.20;;;19.20;99.90;;;;;;5018070;28;20098;-66
2023/07/14 08:06:59;;;;;;;0.30;0.22;;;19.20;99.90;;;;;;5048401;28;20064;-66
2023/07/14 08:09:24;;;;;;;0.43;0.43;;;19.30;99.90;;;;;;5031721;28;20041;-66
2023/07/14 08:11:55;;;;;;;1.10;0.70;;;19.40;99.90;;;;;;5037652;28;20056;-67
2023/07/14 08:14:21;;;;;;;0.10;0.00;;;19.50;99.90;;;;;;5040586;28;20046;-67
2023/07/14 08:16:46;;;;;;;0.22;0.10;;;19.50;99.90;;;;;;5035945;28;20086;-67
2023/07/14 08:19:13;;;;;;;1.27;1.17;;;19.50;99.90;;;;;;5049248;28;20052;-67
2023/07/14 08:21:39;;;;;;;0.15;0.15;;;19.40;99.90;;;;;;5031713;28;20052;-67
2023/07/14 08:24:06;;;;;;;0.35;0.25;;;19.40;99.90;;;;;;5046426;28;20075;-67
2023/07/14 08:26:37;;;;;;;0.10;0.10;;;19.30;99.90;;;;;;5041869;28;20037;-66
2023/07/14 08:29:04;;;;;;;8.88;0.38;;;19.30;99.90;;;;;;5031697;28;20049;-67
2023/07/14 08:31:29;;;;;;;0.00;0.00;;;19.30;99.90;;;;;;5024715;28;20084;-67
2023/07/14 08:33:56;;;;;;;0.40;0.40;;;19.40;99.90;;;;;;5045186;28;20452;-67
2023/07/14 08:36:23;;;;;;;1.60;0.75;;;19.60;99.90;;;;;;5034666;28;20397;-67
2023/07/14 08:38:49;;;;;;;0.10;0.10;;;19.70;99.90;;;;;;5019441;28;20049;-67
2023/07/14 08:41:38;;;;;;;0.70;0.70;;;19.80;99.90;;;;;;5043960;28;20049;-67
2023/07/14 08:44:21;;;;;;;0.10;0.10;;;19.90;99.90;;;;;;5029613;28;20133;-67
2023/07/14 08:47:06;;;;;;;7.80;0.22;;;19.90;99.90;;;;;;5035738;28;20052;-67
2023/07/14 08:49:55;;;;;;;0.00;0.00;;;20.00;99.90;;;;;;5033879;28;20424;-67
2023/07/14 08:52:28;;;;;;;0.22;0.22;;;20.10;99.90;;;;;;5042292;28;20531;-66
2023/07/14 08:54:59;;;;;;;0.45;0.43;;;20.20;99.90;;;;;;5037380;28;20055;-67
2023/07/14 08:57:26;;;;;;;0.00;0.00;;;20.30;99.90;;;;;;5034083;28;20047;-67
2023/07/14 08:59:56;;;;;;;0.45;0.40;;;20.30;99.90;;;;;;5019515;28;20045;-67
2023/07/14 09:02:31;;;;;;;0.03;0.03;;;20.30;99.90;;;;;;5032664;28;20191;-67
2023/07/14 09:05:23;;;;;;;0.10;0.10;;;20.40;99.90;;;;;;5037757;28;20037;-67
2023/07/14 09:07:49;;;;;;;0.10;0.10;;;20.40;99.90;;;;;;5040836;28;20041;-67
2023/07/14 09:10:15;;;;;;;1.27;0.22;;;20.60;99.90;;;;;;5031641;28;20047;-68
2023/07/14 09:12:55;;;;;;;0.00;0.00;;;20.70;99.90;;;;;;5043557;28;20041;-67
2023/07/14 09:15:25;;;;;;;0.00;0.00;;;20.70;99.90;;;;;;5024395;28;20045;-67
2023/07/14 09:18:36;;;;;;;0.00;0.00;;;20.60;99.90;;;;;;5022189;28;20056;-67
2023/07/14 09:21:07;;;;;;;2.10;0.50;;;20.70;99.90;;;;;;5029291;28;20057;-67
2023/07/14 09:23:48;;;;;;;0.88;0.85;;;20.80;99.90;;;;;;5044862;28;20076;-67
2023/07/14 09:26:19;;;;;;;0.10;0.10;;;20.70;99.90;;;;;;5026985;28;20076;-67
2023/07/14 09:28:48;;;;;;;0.57;0.57;;;20.70;99.90;;;;;;5032513;28;20083;-67
2023/07/14 09:31:42;;;;;;;2.72;0.65;;;20.70;99.90;;;;;;5048261;28;20052;-67
2023/07/14 09:34:32;;;;;;;0.00;0.00;;;20.50;99.90;;;;;;5022894;28;20482;-68
2023/07/14 09:36:58;;;;;;;0.00;0.00;;;20.30;99.90;;;;;;5038137;28;20052;-67
2023/07/14 09:39:39;;;;;;;0.00;0.00;;;20.30;99.90;;;;;;5044546;28;20036;-68
2023/07/14 09:42:11;;;;;;;0.00;0.00;;;20.30;99.90;;;;;;5021515;28;20045;-67
2023/07/14 09:44:37;;;;;;;0.00;0.00;;;20.20;99.90;;;;;;5044742;28;20040;-68
2023/07/14 09:47:04;;;;;;;0.00;0.00;;;20.20;99.90;;;;;;5025118;28;20482;-68
2023/07/14 09:49:44;;;;;;;8.30;1.23;;;20.10;99.90;;;;;;5030842;28;20088;-67
2023/07/14 09:52:20;;;;;;;0.03;0.03;;;20.10;99.90;;;;;;5029882;28;20401;-68
2023/07/14 09:54:55;;;;;;;0.90;0.43;;;20.10;99.90;;;;;;5025926;28;20425;-68
2023/07/14 09:57:25;;;;;;;1.55;0.75;;;20.20;99.90;;;;;;5040303;28;20045;-67
2023/07/14 09:59:58;;;;;;;0.77;0.73;;;20.30;99.90;;;;;;5028914;28;20060;-68
2023/07/14 10:02:34;;;;;;;1.25;0.65;;;20.20;99.90;;;;;;5024707;28;20033;-67
2023/07/14 10:05:21;;;;;;;1.27;0.52;;;20.30;99.90;;;;;;5031859;28;20076;-67
2023/07/14 10:07:47;;;;;;;0.47;0.30;;;20.40;99.90;;;;;;5016235;28;20053;-68
2023/07/14 10:10:14;;;;;;;0.20;0.20;;;20.50;99.90;;;;;;5016753;28;20060;-68
2023/07/14 10:12:46;;;;;;;0.20;0.20;;;20.90;99.90;;;;;;5041474;28;20503;-68
2023/07/14 10:15:22;;;;;;;0.00;0.00;;;21.20;99.90;;;;;;5036725;28;20052;-68
2023/07/14 10:17:52;;;;;;;0.10;0.10;;;21.40;99.90;;;;;;5039069;28;20046;-68
2023/07/14 10:20:21;;;;;;;0.00;0.00;;;21.80;99.90;;;;;;5051421;28;20065;-68
2023/07/14 10:22:51;;;;;;;0.00;0.00;;;21.90;99.90;;;;;;5036826;28;20079;-67
2023/07/14 10:25:18;;;;;;;0.57;0.57;;;22.20;99.90;;;;;;5036772;28;20093;-67
2023/07/14 10:27:59;;;;;;;0.00;0.00;;;22.40;99.90;;;;;;5027881;28;20049;-67
2023/07/14 10:30:43;;;;;;;0.30;0.30;;;22.30;99.90;;;;;;5041888;28;20671;-67
2023/07/14 10:33:29;;;;;;;;;;;22.40;99.90;;;;;;5042478;28;20591;-67
2023/07/14 10:36:06;;;;;;;0.05;0.05;;;22.50;99.90;;;;;;5030797;28;19924;-67
2023/07/14 10:38:58;;;;;;;0.10;0.10;;;22.70;99.90;;;;;;5051537;28;20476;-67
2023/07/14 10:41:24;;;;;;;0.20;0.20;;;22.30;99.90;;;;;;5001029;28;20062;-67
2023/07/14 10:43:57;;;;;;;0.00;0.00;;;22.40;99.90;;;;;;5026144;28;20076;-67
2023/07/14 10:46:34;;;;;;;0.00;0.00;;;22.60;99.90;;;;;;5031948;28;20517;-68
2023/07/14 10:49:15;;;;;;;0.10;0.10;;;22.60;99.90;;;;;;5030293;28;20318;-67
2023/07/14 10:51:49;;;;;;;0.10;0.10;;;22.60;99.90;;;;;;5042089;28;20068;-67
2023/07/14 10:54:17;;;;;;;0.10;0.10;;;22.70;99.90;;;;;;5044077;28;20063;-68
2023/07/14 10:57:28;;;;;;;0.32;0.32;;;22.50;99.90;;;;;;5023958;28;20483;-68
2023/07/14 11:00:14;;;;;;;0.35;0.20;;;22.20;99.90;;;;;;5015427;28;20145;-67
2023/07/14 11:02:44;;;;;;;0.00;0.00;;;22.10;99.90;;;;;;5033194;28;20049;-68
2023/07/14 11:05:17;;;;;;;0.20;0.20;;;22.40;99.90;;;;;;5031642;28;20520;-67
2023/07/14 11:07:43;;;;;;;0.00;0.00;;;22.50;99.90;;;;;;5024116;28;20091;-67
2023/07/14 11:10:44;;;;;;;0.20;0.20;;;22.60;99.90;;;;;;5051072;28;20424;-67
2023/07/14 11:13:28;;;;;;;0.45;0.45;;;22.80;99.90;;;;;;5018343;28;20060;-67
2023/07/14 11:16:03;;;;;;;0.75;0.20;;;22.90;99.90;;;;;;5019427;28;20038;-67
2023/07/14 11:18:35;;;;;;;0.98;0.80;;;23.10;99.90;;;;;;5029578;28;20123;-67
2023/07/14 11:21:21;;;;;;;0.03;0.03;;;23.30;99.90;;;;;;5035793;28;20495;-67
2023/07/14 11:24:20;;;;;;;0.30;0.03;;;23.10;99.90;;;;;;5047460;28;20045;-67
2023/07/14 11:26:49;;;;;;;6.00;1.38;;;23.00;99.90;;;;;;4981909;28;20064;-67
2023/07/14 11:29:19;;;;;;;0.00;0.00;;;22.90;99.90;;;;;;5040830;28;20076;-67
2023/07/14 11:31:59;;;;;;;0.00;0.00;;;23.20;99.90;;;;;;5005310;28;20049;-67
2023/07/14 11:34:41;;;;;;;0.15;0.15;;;23.00;99.90;;;;;;5009900;28;20041;-67
2023/07/14 11:37:56;;;;;;;0.25;0.25;;;22.90;99.90;;;;;;4997812;28;20638;-68
2023/07/14 11:40:24;;;;;;;0.98;0.30;;;23.10;99.90;;;;;;5012212;28;20058;-68
2023/07/14 11:42:59;;;;;;;0.08;0.08;;;22.80;99.90;;;;;;5028552;28;20034;-68
2023/07/14 11:45:28;;;;;;;2.17;0.47;;;23.00;99.90;;;;;;5001830;28;20058;-67
2023/07/14 11:47:58;;;;;;;0.40;0.35;;;23.30;99.90;;;;;;5010801;28;20128;-68
2023/07/14 11:50:26;;;;;;;0.28;0.28;;;23.00;99.90;;;;;;5000441;28;20470;-67
2023/07/14 11:53:09;;;;;;;0.90;0.68;;;23.00;99.90;;;;;;5015606;28;20050;-68
2023/07/14 11:55:40;;;;;;;0.75;0.32;;;23.30;99.90;;;;;;5026383;28;20037;-68
2023/07/14 11:58:12;;;;;;;0.30;0.30;;;23.20;99.90;;;;;;4994579;28;20046;-67
2023/07/14 12:00:41;;;;;;;2.35;0.70;;;23.20;99.90;;;;;;5017169;28;20064;-68
2023/07/14 12:03:23;;;;;;;1.42;0.90;;;23.50;99.90;;;;;;5021541;28;20629;-67
2023/07/14 12:06:17;;;;;;;0.33;0.20;;;23.50;99.90;;;;;;5004514;28;20057;-68
2023/07/14 12:08:44;;;;;;;6.22;2.85;;;23.50;99.90;;;;;;5022955;28;20084;-68
2023/07/14 12:11:28;;;;;;;0.85;0.47;;;23.30;99.90;;;;;;5000731;28;20041;-67
2023/07/14 12:13:54;;;;;;;0.30;0.30;;;23.00;99.90;;;;;;5022826;28;20092;-68
2023/07/14 12:16:25;;;;;;;0.20;0.20;;;23.00;99.90;;;;;;5021526;28;20041;-67
2023/07/14 12:19:22;;;;;;;0.57;0.52;;;22.80;99.90;;;;;;5018661;28;20043;-67
2023/07/14 12:22:07;;;;;;;0.10;0.10;;;22.80;99.90;;;;;;5016086;28;20033;-68
2023/07/14 12:24:48;;;;;;;1.55;0.28;;;22.70;99.90;;;;;;5027174;28;20080;-68
2023/07/14 12:27:30;;;;;;;0.35;0.35;;;22.90;99.90;;;;;;5008193;28;20038;-68
2023/07/14 12:30:09;;;;;;;1.20;1.10;;;22.90;99.90;;;;;;5015337;28;20038;-68
2023/07/14 12:32:35;;;;;;;6.70;0.30;;;22.90;99.90;;;;;;5007538;28;20050;-68
2023/07/14 12:35:01;;;;;;;0.47;0.47;;;22.90;99.90;;;;;;5017672;28;20099;-67
2023/07/14 12:37:32;;;;;;;0.00;0.00;;;22.70;99.90;;;;;;5026033;28;20054;-68
2023/07/14 12:39:59;;;;;;;0.20;0.20;;;22.60;99.90;;;;;;5036530;28;20064;-68
2023/07/14 12:42:24;;;;;;;0.22;0.22;;;22.50;99.90;;;;;;5029846;28;20587;-68
2023/07/14 12:44:53;;;;;;;0.00;0.00;;;22.50;99.90;;;;;;5036932;28;20052;-68
2023/07/14 12:47:20;;;;;;;0.13;0.13;;;22.40;99.90;;;;;;5028102;28;20049;-68
2023/07/14 12:49:49;;;;;;;0.57;0.30;;;22.30;99.90;;;;;;5037338;28;20052;-68
2023/07/14 12:52:20;;;;;;;0.20;0.20;;;22.10;99.90;;;;;;5043632;28;20049;-68
2023/07/14 12:54:47;;;;;;;0.98;0.52;;;22.10;99.90;;;;;;5034319;28;20046;-68
2023/07/14 12:57:16;;;;;;;0.30;0.30;;;22.10;99.90;;;;;;5032820;28;20500;-68
2023/07/14 12:59:50;;;;;;;0.00;0.00;;;22.00;99.90;;;;;;5034911;28;20083;-67
2023/07/14 13:02:17;;;;;;;0.10;0.10;;;22.00;99.90;;;;;;5035364;28;20131;-67
2023/07/14 13:04:43;;;;;;;0.35;0.35;;;21.90;99.90;;;;;;5039696;28;20033;-67